sensor_id;sensor_type;location;lat;lon;timestamp;temperature;humidity
12015;DHT22;6066;48.138;16.402;2023-04-06T00:02:25;-0.10;99.90
12015;DHT22;6066;48.138;16.402;2023-04-06T00:04:53;-0.10;99.90
12015;DHT22;6066;48.138;16.402;2023-04-06T00:07:20;-0.10;99.90
12015;DHT22;6066;48.138;16.402;2023-04-06T00:09:47;-0.10;99.90
12015;DHT22;6066;48.138;16.402;2023-04-06T00:12:13;-0.10;99.90
12015;DHT22;6066;48.138;16.402;2023-04-06T00:14:40;-0.10;99.90
12015;DHT22;6066;48.138;16.402;2023-04-06T00:17:07;-0.10;99.90
12015;DHT22;6066;48.138;16.402;2023-04-06T00:19:34;-0.10;99.90
12015;DHT22;6066;48.138;16.402;2023-04-06T00:22:02;-0.10;99.90
12015;DHT22;6066;48.138;16.402;2023-04-06T00:24:28;-0.10;99.90
12015;DHT22;6066;48.138;16.402;2023-04-06T00:26:55;-0.10;99.90
12015;DHT22;6066;48.138;16.402;2023-04-06T00:29:22;-0.10;99.90
12015;DHT22;6066;48.138;16.402;2023-04-06T00:31:48;-0.10;99.90
12015;DHT22;6066;48.138;16.402;2023-04-06T00:34:15;-0.10;99.90
12015;DHT22;6066;48.138;16.402;2023-04-06T00:36:42;-0.10;99.90
12015;DHT22;6066;48.138;16.402;2023-04-06T00:39:10;-0.10;99.90
12015;DHT22;6066;48.138;16.402;2023-04-06T00:41:37;-0.10;99.90
12015;DHT22;6066;48.138;16.402;2023-04-06T00:44:05;0.00;99.90
12015;DHT22;6066;48.138;16.402;2023-04-06T00:46:32;0.00;99.90
12015;DHT22;6066;48.138;16.402;2023-04-06T00:48:59;0.00;99.90
12015;DHT22;6066;48.138;16.402;2023-04-06T00:51:25;0.00;99.90
12015;DHT22;6066;48.138;16.402;2023-04-06T00:53:52;0.00;99.90
12015;DHT22;6066;48.138;16.402;2023-04-06T00:56:21;-0.10;99.90
12015;DHT22;6066;48.138;16.402;2023-04-06T00:58:48;-0.10;99.90
12015;DHT22;6066;48.138;16.402;2023-04-06T01:01:15;-0.10;99.90
12015;DHT22;6066;48.138;16.402;2023-04-06T01:03:42;-0.10;99.90
12015;DHT22;6066;48.138;16.402;2023-04-06T01:06:09;-0.20;99.90
12015;DHT22;6066;48.138;16.402;2023-04-06T01:08:36;-0.20;99.90
12015;DHT22;6066;48.138;16.402;2023-04-06T01:11:03;-0.20;99.90
12015;DHT22;6066;48.138;16.402;2023-04-06T01:13:31;-0.20;99.90
12015;DHT22;6066;48.138;16.402;2023-04-06T01:15:58;-0.30;99.90
12015;DHT22;6066;48.138;16.402;2023-04-06T01:18:25;-0.30;99.90
12015;DHT22;6066;48.138;16.402;2023-04-06T01:20:52;-0.30;99.90
12015;DHT22;6066;48.138;16.402;2023-04-06T01:23:20;-0.30;99.90
12015;DHT22;6066;48.138;16.402;2023-04-06T01:25:47;-0.30;99.90
12015;DHT22;6066;48.138;16.402;2023-04-06T01:28:15;-0.30;99.90
12015;DHT22;6066;48.138;16.402;2023-04-06T01:30:41;-0.40;99.90
12015;DHT22;6066;48.138;16.402;2023-04-06T01:33:08;-0.40;99.90
12015;DHT22;6066;48.138;16.402;2023-04-06T01:35:35;-0.40;99.90
12015;DHT22;6066;48.138;16.402;2023-04-06T01:38:01;-0.30;99.90
12015;DHT22;6066;48.138;16.402;2023-04-06T01:40:29;-0.30;99.90
12015;DHT22;6066;48.138;16.402;2023-04-06T01:42:56;-0.30;99.90
12015;DHT22;6066;48.138;16.402;2023-04-06T01:45:23;-0.20;99.90
12015;DHT22;6066;48.138;16.402;2023-04-06T01:47:50;-0.10;99.90
12015;DHT22;6066;48.138;16.402;2023-04-06T01:50:17;-0.10;99.90
12015;DHT22;6066;48.138;16.402;2023-04-06T01:52:44;0.00;99.90
12015;DHT22;6066;48.138;16.402;2023-04-06T01:55:10;-0.10;99.90
12015;DHT22;6066;48.138;16.402;2023-04-06T01:57:38;-0.10;99.90
12015;DHT22;6066;48.138;16.402;2023-04-06T02:00:06;0.00;99.90
12015;DHT22;6066;48.138;16.402;2023-04-06T02:02:33;0.00;99.90
12015;DHT22;6066;48.138;16.402;2023-04-06T02:05:00;0.10;99.90
12015;DHT22;6066;48.138;16.402;2023-04-06T02:07:26;0.10;99.90
12015;DHT22;6066;48.138;16.402;2023-04-06T02:09:53;0.10;99.90
12015;DHT22;6066;48.138;16.402;2023-04-06T02:12:20;0.10;99.90
12015;DHT22;6066;48.138;16.402;2023-04-06T02:14:48;0.10;99.90
12015;DHT22;6066;48.138;16.402;2023-04-06T02:17:15;0.10;99.90
12015;DHT22;6066;48.138;16.402;2023-04-06T02:19:42;0.10;99.90
12015;DHT22;6066;48.138;16.402;2023-04-06T02:22:09;0.10;99.90
12015;DHT22;6066;48.138;16.402;2023-04-06T02:24:36;0.10;99.90
12015;DHT22;6066;48.138;16.402;2023-04-06T02:27:03;0.00;99.90
12015;DHT22;6066;48.138;16.402;2023-04-06T02:29:30;0.10;99.90
12015;DHT22;6066;48.138;16.402;2023-04-06T02:31:58;0.00;99.90
12015;DHT22;6066;48.138;16.402;2023-04-06T02:34:25;0.00;99.90
12015;DHT22;6066;48.138;16.402;2023-04-06T02:36:51;0.00;99.90
12015;DHT22;6066;48.138;16.402;2023-04-06T02:39:21;0.00;99.90
12015;DHT22;6066;48.138;16.402;2023-04-06T02:41:48;0.00;99.90
12015;DHT22;6066;48.138;16.402;2023-04-06T02:44:15;0.10;99.90
12015;DHT22;6066;48.138;16.402;2023-04-06T02:46:41;0.10;99.90
12015;DHT22;6066;48.138;16.402;2023-04-06T02:49:09;0.10;99.90
12015;DHT22;6066;48.138;16.402;2023-04-06T02:51:36;0.20;99.90
12015;DHT22;6066;48.138;16.402;2023-04-06T02:54:03;0.20;99.90
12015;DHT22;6066;48.138;16.402;2023-04-06T02:56:30;0.20;99.90
12015;DHT22;6066;48.138;16.402;2023-04-06T02:58:56;0.30;99.90
12015;DHT22;6066;48.138;16.402;2023-04-06T03:01:23;0.30;99.90
12015;DHT22;6066;48.138;16.402;2023-04-06T03:03:50;0.30;99.90
12015;DHT22;6066;48.138;16.402;2023-04-06T03:06:18;0.30;99.90
12015;DHT22;6066;48.138;16.402;2023-04-06T03:08:45;0.20;99.90
12015;DHT22;6066;48.138;16.402;2023-04-06T03:11:12;0.30;99.90
12015;DHT22;6066;48.138;16.402;2023-04-06T03:13:39;0.30;99.90
12015;DHT22;6066;48.138;16.402;2023-04-06T03:16:06;0.30;99.90
12015;DHT22;6066;48.138;16.402;2023-04-06T03:18:33;0.30;99.90
12015;DHT22;6066;48.138;16.402;2023-04-06T03:20:59;0.30;99.90
12015;DHT22;6066;48.138;16.402;2023-04-06T03:23:27;0.30;99.90
12015;DHT22;6066;48.138;16.402;2023-04-06T03:25:54;0.30;99.90
12015;DHT22;6066;48.138;16.402;2023-04-06T03:28:21;0.30;99.90
12015;DHT22;6066;48.138;16.402;2023-04-06T03:30:48;0.30;99.90
12015;DHT22;6066;48.138;16.402;2023-04-06T03:33:15;0.30;99.90
12015;DHT22;6066;48.138;16.402;2023-04-06T03:35:41;0.40;99.90
12015;DHT22;6066;48.138;16.402;2023-04-06T03:38:08;0.40;99.90
12015;DHT22;6066;48.138;16.402;2023-04-06T03:40:36;0.40;99.90
12015;DHT22;6066;48.138;16.402;2023-04-06T03:43:03;0.40;99.90
12015;DHT22;6066;48.138;16.402;2023-04-06T03:45:30;0.50;99.90
12015;DHT22;6066;48.138;16.402;2023-04-06T03:47:57;0.50;99.90
12015;DHT22;6066;48.138;16.402;2023-04-06T03:50:24;0.50;99.90
12015;DHT22;6066;48.138;16.402;2023-04-06T03:52:50;0.50;99.90
12015;DHT22;6066;48.138;16.402;2023-04-06T03:55:17;0.60;99.90
12015;DHT22;6066;48.138;16.402;2023-04-06T03:57:45;0.50;99.90
12015;DHT22;6066;48.138;16.402;2023-04-06T04:00:12;0.60;99.90
12015;DHT22;6066;48.138;16.402;2023-04-06T04:02:39;0.50;99.90
12015;DHT22;6066;48.138;16.402;2023-04-06T04:05:06;0.50;99.90
12015;DHT22;6066;48.138;16.402;2023-04-06T04:07:33;0.50;99.90
12015;DHT22;6066;48.138;16.402;2023-04-06T04:09:59;0.50;99.90
12015;DHT22;6066;48.138;16.402;2023-04-06T04:12:26;0.50;99.90
12015;DHT22;6066;48.138;16.402;2023-04-06T04:14:54;0.50;99.90
12015;DHT22;6066;48.138;16.402;2023-04-06T04:17:21;0.50;99.90
12015;DHT22;6066;48.138;16.402;2023-04-06T04:19:48;0.60;99.90
12015;DHT22;6066;48.138;16.402;2023-04-06T04:22:14;0.60;99.90
12015;DHT22;6066;48.138;16.402;2023-04-06T04:24:41;0.60;99.90
12015;DHT22;6066;48.138;16.402;2023-04-06T04:27:10;0.60;99.90
12015;DHT22;6066;48.138;16.402;2023-04-06T04:29:36;0.60;99.90
12015;DHT22;6066;48.138;16.402;2023-04-06T04:32:05;0.70;99.90
12015;DHT22;6066;48.138;16.402;2023-04-06T04:34:31;0.70;99.90
12015;DHT22;6066;48.138;16.402;2023-04-06T04:36:58;0.70;99.90
12015;DHT22;6066;48.138;16.402;2023-04-06T04:39:25;0.70;99.90
12015;DHT22;6066;48.138;16.402;2023-04-06T04:41:52;0.70;99.90
12015;DHT22;6066;48.138;16.402;2023-04-06T04:44:19;0.80;99.90
12015;DHT22;6066;48.138;16.402;2023-04-06T04:46:51;0.80;99.90
12015;DHT22;6066;48.138;16.402;2023-04-06T04:49:19;0.80;99.90
12015;DHT22;6066;48.138;16.402;2023-04-06T04:51:46;0.80;99.90
12015;DHT22;6066;48.138;16.402;2023-04-06T04:54:13;0.80;99.90
12015;DHT22;6066;48.138;16.402;2023-04-06T04:56:39;0.90;99.90
12015;DHT22;6066;48.138;16.402;2023-04-06T04:59:06;0.80;99.90
12015;DHT22;6066;48.138;16.402;2023-04-06T05:01:33;0.90;99.90
12015;DHT22;6066;48.138;16.402;2023-04-06T05:04:00;0.90;99.90
12015;DHT22;6066;48.138;16.402;2023-04-06T05:06:28;0.90;99.90
12015;DHT22;6066;48.138;16.402;2023-04-06T05:08:55;0.90;99.90
12015;DHT22;6066;48.138;16.402;2023-04-06T05:11:21;0.90;99.90
12015;DHT22;6066;48.138;16.402;2023-04-06T05:13:48;0.90;99.90
12015;DHT22;6066;48.138;16.402;2023-04-06T05:16:15;1.00;99.90
12015;DHT22;6066;48.138;16.402;2023-04-06T05:18:41;1.00;99.90
12015;DHT22;6066;48.138;16.402;2023-04-06T05:21:09;1.00;99.90
12015;DHT22;6066;48.138;16.402;2023-04-06T05:23:37;1.00;99.90
12015;DHT22;6066;48.138;16.402;2023-04-06T05:26:04;1.00;99.90
12015;DHT22;6066;48.138;16.402;2023-04-06T05:28:31;1.00;99.90
12015;DHT22;6066;48.138;16.402;2023-04-06T05:30:58;1.10;99.90
12015;DHT22;6066;48.138;16.402;2023-04-06T05:33:25;1.10;99.90
12015;DHT22;6066;48.138;16.402;2023-04-06T05:35:52;1.10;99.90
12015;DHT22;6066;48.138;16.402;2023-04-06T05:38:18;1.20;99.90
12015;DHT22;6066;48.138;16.402;2023-04-06T05:40:46;1.20;99.90
12015;DHT22;6066;48.138;16.402;2023-04-06T05:43:13;1.30;99.90
12015;DHT22;6066;48.138;16.402;2023-04-06T05:45:40;1.30;99.90
12015;DHT22;6066;48.138;16.402;2023-04-06T05:48:06;1.40;99.90
12015;DHT22;6066;48.138;16.402;2023-04-06T05:50:33;1.40;99.90
12015;DHT22;6066;48.138;16.402;2023-04-06T05:53:00;1.40;99.90
12015;DHT22;6066;48.138;16.402;2023-04-06T05:55:27;1.50;99.90
12015;DHT22;6066;48.138;16.402;2023-04-06T05:57:55;1.50;99.90
12015;DHT22;6066;48.138;16.402;2023-04-06T06:00:22;1.50;99.90
12015;DHT22;6066;48.138;16.402;2023-04-06T06:02:48;1.60;99.90
12015;DHT22;6066;48.138;16.402;2023-04-06T06:05:15;1.60;99.90
12015;DHT22;6066;48.138;16.402;2023-04-06T06:07:42;1.70;99.90
12015;DHT22;6066;48.138;16.402;2023-04-06T06:10:09;1.80;99.90
12015;DHT22;6066;48.138;16.402;2023-04-06T06:12:36;1.80;99.90
12015;DHT22;6066;48.138;16.402;2023-04-06T06:15:04;1.90;99.90
12015;DHT22;6066;48.138;16.402;2023-04-06T06:17:31;1.90;99.90
12015;DHT22;6066;48.138;16.402;2023-04-06T06:19:58;2.00;99.90
12015;DHT22;6066;48.138;16.402;2023-04-06T06:22:25;2.10;99.90
12015;DHT22;6066;48.138;16.402;2023-04-06T06:24:51;2.20;99.90
12015;DHT22;6066;48.138;16.402;2023-04-06T06:27:18;2.20;99.90
12015;DHT22;6066;48.138;16.402;2023-04-06T06:29:45;2.30;99.90
12015;DHT22;6066;48.138;16.402;2023-04-06T06:32:13;2.40;99.90
12015;DHT22;6066;48.138;16.402;2023-04-06T06:34:40;2.50;99.90
12015;DHT22;6066;48.138;16.402;2023-04-06T06:37:07;2.50;99.90
12015;DHT22;6066;48.138;16.402;2023-04-06T06:39:33;2.60;99.90
12015;DHT22;6066;48.138;16.402;2023-04-06T06:42:00;2.70;99.90
12015;DHT22;6066;48.138;16.402;2023-04-06T06:44:27;2.80;99.90
12015;DHT22;6066;48.138;16.402;2023-04-06T06:46:54;2.80;99.90
12015;DHT22;6066;48.138;16.402;2023-04-06T06:49:22;2.90;99.90
12015;DHT22;6066;48.138;16.402;2023-04-06T06:51:49;3.00;99.90
12015;DHT22;6066;48.138;16.402;2023-04-06T06:54:16;3.00;99.90
12015;DHT22;6066;48.138;16.402;2023-04-06T06:56:43;3.10;99.90
12015;DHT22;6066;48.138;16.402;2023-04-06T06:59:10;3.20;99.90
12015;DHT22;6066;48.138;16.402;2023-04-06T07:01:36;3.30;99.90
12015;DHT22;6066;48.138;16.402;2023-04-06T07:04:03;3.30;99.90
12015;DHT22;6066;48.138;16.402;2023-04-06T07:06:32;3.40;99.90
12015;DHT22;6066;48.138;16.402;2023-04-06T07:08:58;3.50;99.90
12015;DHT22;6066;48.138;16.402;2023-04-06T07:11:25;3.50;99.90
12015;DHT22;6066;48.138;16.402;2023-04-06T07:13:52;3.60;99.90
12015;DHT22;6066;48.138;16.402;2023-04-06T07:16:19;3.70;99.90
12015;DHT22;6066;48.138;16.402;2023-04-06T07:18:46;3.80;99.90
12015;DHT22;6066;48.138;16.402;2023-04-06T07:21:12;3.90;99.90
12015;DHT22;6066;48.138;16.402;2023-04-06T07:23:41;3.90;99.90
12015;DHT22;6066;48.138;16.402;2023-04-06T07:26:10;4.00;99.90
12015;DHT22;6066;48.138;16.402;2023-04-06T07:28:37;4.10;99.90
12015;DHT22;6066;48.138;16.402;2023-04-06T07:31:03;4.10;99.90
12015;DHT22;6066;48.138;16.402;2023-04-06T07:33:30;4.20;99.90
12015;DHT22;6066;48.138;16.402;2023-04-06T07:35:57;4.40;99.90
12015;DHT22;6066;48.138;16.402;2023-04-06T07:38:24;4.50;99.90
12015;DHT22;6066;48.138;16.402;2023-04-06T07:40:52;4.50;99.90
12015;DHT22;6066;48.138;16.402;2023-04-06T07:43:19;4.60;99.90
12015;DHT22;6066;48.138;16.402;2023-04-06T07:45:46;4.70;99.90
12015;DHT22;6066;48.138;16.402;2023-04-06T07:48:13;4.80;99.90
12015;DHT22;6066;48.138;16.402;2023-04-06T07:50:40;4.90;99.90
12015;DHT22;6066;48.138;16.402;2023-04-06T07:53:07;5.00;99.90
12015;DHT22;6066;48.138;16.402;2023-04-06T07:55:34;5.10;99.90
12015;DHT22;6066;48.138;16.402;2023-04-06T07:58:02;5.10;99.90
12015;DHT22;6066;48.138;16.402;2023-04-06T08:00:29;5.10;99.90
12015;DHT22;6066;48.138;16.402;2023-04-06T08:02:56;5.10;99.90
12015;DHT22;6066;48.138;16.402;2023-04-06T08:05:23;5.20;99.90
12015;DHT22;6066;48.138;16.402;2023-04-06T08:07:50;5.20;99.90
12015;DHT22;6066;48.138;16.402;2023-04-06T08:10:16;5.40;99.90
12015;DHT22;6066;48.138;16.402;2023-04-06T08:12:43;5.40;99.90
12015;DHT22;6066;48.138;16.402;2023-04-06T08:15:11;5.50;99.90
12015;DHT22;6066;48.138;16.402;2023-04-06T08:17:38;5.50;99.90
12015;DHT22;6066;48.138;16.402;2023-04-06T08:20:05;5.60;99.90
12015;DHT22;6066;48.138;16.402;2023-04-06T08:22:32;5.70;99.90
12015;DHT22;6066;48.138;16.402;2023-04-06T08:24:59;5.80;99.90
12015;DHT22;6066;48.138;16.402;2023-04-06T08:27:25;5.90;99.90
12015;DHT22;6066;48.138;16.402;2023-04-06T08:29:52;6.10;99.90
12015;DHT22;6066;48.138;16.402;2023-04-06T08:32:20;6.20;99.90
12015;DHT22;6066;48.138;16.402;2023-04-06T08:34:47;6.30;99.90
12015;DHT22;6066;48.138;16.402;2023-04-06T08:37:14;6.40;99.90
12015;DHT22;6066;48.138;16.402;2023-04-06T08:39:40;6.50;99.90
12015;DHT22;6066;48.138;16.402;2023-04-06T08:42:10;6.60;99.90
12015;DHT22;6066;48.138;16.402;2023-04-06T08:44:39;6.60;99.90
12015;DHT22;6066;48.138;16.402;2023-04-06T08:47:07;6.60;99.90
12015;DHT22;6066;48.138;16.402;2023-04-06T08:49:35;6.60;99.90
12015;DHT22;6066;48.138;16.402;2023-04-06T08:52:05;6.60;99.90
12015;DHT22;6066;48.138;16.402;2023-04-06T08:54:32;6.70;99.90
12015;DHT22;6066;48.138;16.402;2023-04-06T08:56:59;6.80;99.90
12015;DHT22;6066;48.138;16.402;2023-04-06T08:59:26;6.90;99.90
12015;DHT22;6066;48.138;16.402;2023-04-06T09:01:53;6.90;99.90
12015;DHT22;6066;48.138;16.402;2023-04-06T09:04:21;6.90;99.90
12015;DHT22;6066;48.138;16.402;2023-04-06T09:06:49;7.00;99.90
12015;DHT22;6066;48.138;16.402;2023-04-06T09:09:16;7.10;99.90
12015;DHT22;6066;48.138;16.402;2023-04-06T09:11:46;7.20;99.90
12015;DHT22;6066;48.138;16.402;2023-04-06T09:14:13;7.30;99.90
12015;DHT22;6066;48.138;16.402;2023-04-06T09:16:40;7.50;99.90
12015;DHT22;6066;48.138;16.402;2023-04-06T09:19:07;7.60;99.90
12015;DHT22;6066;48.138;16.402;2023-04-06T09:21:34;7.70;99.90
12015;DHT22;6066;48.138;16.402;2023-04-06T09:24:03;7.80;99.90
12015;DHT22;6066;48.138;16.402;2023-04-06T09:26:30;7.90;99.90
12015;DHT22;6066;48.138;16.402;2023-04-06T09:28:59;8.10;99.90
12015;DHT22;6066;48.138;16.402;2023-04-06T09:31:27;8.20;99.90
12015;DHT22;6066;48.138;16.402;2023-04-06T09:33:56;8.20;99.90
12015;DHT22;6066;48.138;16.402;2023-04-06T09:36:29;8.20;99.90
12015;DHT22;6066;48.138;16.402;2023-04-06T09:38:57;8.30;99.90
12015;DHT22;6066;48.138;16.402;2023-04-06T09:41:25;8.40;99.30
12015;DHT22;6066;48.138;16.402;2023-04-06T09:44:01;8.40;98.90
12015;DHT22;6066;48.138;16.402;2023-04-06T09:46:28;8.50;98.70
12015;DHT22;6066;48.138;16.402;2023-04-06T09:48:57;8.70;99.80
12015;DHT22;6066;48.138;16.402;2023-04-06T09:51:25;8.90;99.40
12015;DHT22;6066;48.138;16.402;2023-04-06T09:53:54;8.90;99.80
12015;DHT22;6066;48.138;16.402;2023-04-06T09:56:28;8.90;98.30
12015;DHT22;6066;48.138;16.402;2023-04-06T09:58:56;8.90;99.70
12015;DHT22;6066;48.138;16.402;2023-04-06T10:01:23;9.00;97.30
12015;DHT22;6066;48.138;16.402;2023-04-06T10:03:54;9.20;98.60
12015;DHT22;6066;48.138;16.402;2023-04-06T10:06:22;9.30;97.90
12015;DHT22;6066;48.138;16.402;2023-04-06T10:08:51;9.50;97.80
12015;DHT22;6066;48.138;16.402;2023-04-06T10:11:20;9.70;97.50
12015;DHT22;6066;48.138;16.402;2023-04-06T10:13:48;9.90;97.40
12015;DHT22;6066;48.138;16.402;2023-04-06T10:16:16;9.80;96.80
12015;DHT22;6066;48.138;16.402;2023-04-06T10:18:44;9.80;96.50
12015;DHT22;6066;48.138;16.402;2023-04-06T10:21:12;9.90;96.50
12015;DHT22;6066;48.138;16.402;2023-04-06T10:23:41;9.80;95.40
12015;DHT22;6066;48.138;16.402;2023-04-06T10:26:12;9.50;96.10
12015;DHT22;6066;48.138;16.402;2023-04-06T10:28:41;9.40;95.70
12015;DHT22;6066;48.138;16.402;2023-04-06T10:31:09;9.50;96.50
12015;DHT22;6066;48.138;16.402;2023-04-06T10:33:35;9.70;97.10
12015;DHT22;6066;48.138;16.402;2023-04-06T10:36:11;9.70;96.00
12015;DHT22;6066;48.138;16.402;2023-04-06T10:38:39;9.60;95.40
12015;DHT22;6066;48.138;16.402;2023-04-06T10:41:11;9.40;96.40
12015;DHT22;6066;48.138;16.402;2023-04-06T10:43:38;9.70;96.10
12015;DHT22;6066;48.138;16.402;2023-04-06T10:46:06;9.80;95.30
12015;DHT22;6066;48.138;16.402;2023-04-06T10:48:37;10.00;95.10
12015;DHT22;6066;48.138;16.402;2023-04-06T10:51:09;10.20;96.10
12015;DHT22;6066;48.138;16.402;2023-04-06T10:53:36;10.40;95.80
12015;DHT22;6066;48.138;16.402;2023-04-06T10:56:03;10.50;95.60
12015;DHT22;6066;48.138;16.402;2023-04-06T10:58:30;10.80;96.40
12015;DHT22;6066;48.138;16.402;2023-04-06T11:00:57;11.00;95.90
12015;DHT22;6066;48.138;16.402;2023-04-06T11:03:25;10.90;94.00
12015;DHT22;6066;48.138;16.402;2023-04-06T11:05:53;10.60;94.30
12015;DHT22;6066;48.138;16.402;2023-04-06T11:08:27;10.40;94.80
12015;DHT22;6066;48.138;16.402;2023-04-06T11:11:03;10.50;95.90
12015;DHT22;6066;48.138;16.402;2023-04-06T11:13:36;10.50;95.10
12015;DHT22;6066;48.138;16.402;2023-04-06T11:16:04;10.70;95.30
12015;DHT22;6066;48.138;16.402;2023-04-06T11:18:31;10.70;94.40
12015;DHT22;6066;48.138;16.402;2023-04-06T11:20:59;10.60;94.80
12015;DHT22;6066;48.138;16.402;2023-04-06T11:23:27;10.50;95.30
12015;DHT22;6066;48.138;16.402;2023-04-06T11:25:54;10.60;96.00
12015;DHT22;6066;48.138;16.402;2023-04-06T11:28:21;10.50;94.50
12015;DHT22;6066;48.138;16.402;2023-04-06T11:30:47;10.40;95.70
12015;DHT22;6066;48.138;16.402;2023-04-06T11:33:19;10.40;95.50
12015;DHT22;6066;48.138;16.402;2023-04-06T11:35:46;10.50;94.90
12015;DHT22;6066;48.138;16.402;2023-04-06T11:38:14;10.50;94.30
12015;DHT22;6066;48.138;16.402;2023-04-06T11:40:41;10.30;94.20
12015;DHT22;6066;48.138;16.402;2023-04-06T11:43:10;10.30;95.20
12015;DHT22;6066;48.138;16.402;2023-04-06T11:45:41;10.50;95.10
12015;DHT22;6066;48.138;16.402;2023-04-06T11:48:17;10.70;95.20
12015;DHT22;6066;48.138;16.402;2023-04-06T11:50:45;10.90;94.70
12015;DHT22;6066;48.138;16.402;2023-04-06T11:53:12;11.10;96.50
12015;DHT22;6066;48.138;16.402;2023-04-06T11:55:40;11.30;94.00
12015;DHT22;6066;48.138;16.402;2023-04-06T11:58:10;11.40;94.20
12015;DHT22;6066;48.138;16.402;2023-04-06T12:00:37;11.50;96.00
12015;DHT22;6066;48.138;16.402;2023-04-06T12:03:04;11.50;93.60
12015;DHT22;6066;48.138;16.402;2023-04-06T12:05:32;11.60;92.90
12015;DHT22;6066;48.138;16.402;2023-04-06T12:07:59;11.60;93.70
12015;DHT22;6066;48.138;16.402;2023-04-06T12:10:25;11.80;94.90
12015;DHT22;6066;48.138;16.402;2023-04-06T12:12:53;11.90;95.20
12015;DHT22;6066;48.138;16.402;2023-04-06T12:15:20;12.10;94.40
12015;DHT22;6066;48.138;16.402;2023-04-06T12:17:51;12.40;93.80
12015;DHT22;6066;48.138;16.402;2023-04-06T12:20:18;12.40;92.70
12015;DHT22;6066;48.138;16.402;2023-04-06T12:22:44;12.50;92.60
12015;DHT22;6066;48.138;16.402;2023-04-06T12:25:11;12.50;92.80
12015;DHT22;6066;48.138;16.402;2023-04-06T12:27:38;12.70;92.60
12015;DHT22;6066;48.138;16.402;2023-04-06T12:30:07;12.60;93.20
12015;DHT22;6066;48.138;16.402;2023-04-06T12:32:34;12.40;91.60
12015;DHT22;6066;48.138;16.402;2023-04-06T12:35:03;12.20;92.80
12015;DHT22;6066;48.138;16.402;2023-04-06T12:37:30;12.20;92.80
12015;DHT22;6066;48.138;16.402;2023-04-06T12:39:59;12.20;91.90
12015;DHT22;6066;48.138;16.402;2023-04-06T12:42:26;12.20;92.20
12015;DHT22;6066;48.138;16.402;2023-04-06T12:44:53;12.20;92.70
12015;DHT22;6066;48.138;16.402;2023-04-06T12:47:21;12.30;92.30
12015;DHT22;6066;48.138;16.402;2023-04-06T12:49:48;12.40;92.40
12015;DHT22;6066;48.138;16.402;2023-04-06T12:52:15;12.40;93.90
12015;DHT22;6066;48.138;16.402;2023-04-06T12:54:42;12.30;93.50
12015;DHT22;6066;48.138;16.402;2023-04-06T12:57:10;12.20;92.20
12015;DHT22;6066;48.138;16.402;2023-04-06T12:59:36;12.00;92.30
12015;DHT22;6066;48.138;16.402;2023-04-06T13:02:05;11.80;92.50
12015;DHT22;6066;48.138;16.402;2023-04-06T13:04:33;11.70;93.40
12015;DHT22;6066;48.138;16.402;2023-04-06T13:07:00;11.60;92.70
12015;DHT22;6066;48.138;16.402;2023-04-06T13:09:27;11.60;94.00
12015;DHT22;6066;48.138;16.402;2023-04-06T13:11:53;11.50;92.30
12015;DHT22;6066;48.138;16.402;2023-04-06T13:14:20;11.40;92.20
12015;DHT22;6066;48.138;16.402;2023-04-06T13:16:47;11.40;92.50
12015;DHT22;6066;48.138;16.402;2023-04-06T13:19:14;11.50;94.30
12015;DHT22;6066;48.138;16.402;2023-04-06T13:21:43;11.60;92.30
12015;DHT22;6066;48.138;16.402;2023-04-06T13:24:10;11.60;93.40
12015;DHT22;6066;48.138;16.402;2023-04-06T13:26:36;11.90;93.70
12015;DHT22;6066;48.138;16.402;2023-04-06T13:29:03;12.00;92.40
12015;DHT22;6066;48.138;16.402;2023-04-06T13:31:30;12.30;93.40
12015;DHT22;6066;48.138;16.402;2023-04-06T13:33:56;12.50;93.10
12015;DHT22;6066;48.138;16.402;2023-04-06T13:36:23;12.50;92.20
12015;DHT22;6066;48.138;16.402;2023-04-06T13:38:51;12.50;92.00
12015;DHT22;6066;48.138;16.402;2023-04-06T13:41:19;12.70;93.10
12015;DHT22;6066;48.138;16.402;2023-04-06T13:43:47;12.70;91.70
12015;DHT22;6066;48.138;16.402;2023-04-06T13:46:14;12.70;92.30
12015;DHT22;6066;48.138;16.402;2023-04-06T13:48:40;12.70;91.70
12015;DHT22;6066;48.138;16.402;2023-04-06T13:51:07;12.80;91.50
12015;DHT22;6066;48.138;16.402;2023-04-06T13:53:34;12.80;91.40
12015;DHT22;6066;48.138;16.402;2023-04-06T13:56:03;12.80;90.90
12015;DHT22;6066;48.138;16.402;2023-04-06T13:58:29;12.70;91.40
12015;DHT22;6066;48.138;16.402;2023-04-06T14:01:01;12.80;92.00
12015;DHT22;6066;48.138;16.402;2023-04-06T14:03:27;12.80;92.00
12015;DHT22;6066;48.138;16.402;2023-04-06T14:05:54;12.90;91.30
12015;DHT22;6066;48.138;16.402;2023-04-06T14:08:21;12.80;91.20
12015;DHT22;6066;48.138;16.402;2023-04-06T14:10:47;12.70;91.50
12015;DHT22;6066;48.138;16.402;2023-04-06T14:13:16;12.80;91.00
12015;DHT22;6066;48.138;16.402;2023-04-06T14:15:42;12.80;91.00
12015;DHT22;6066;48.138;16.402;2023-04-06T14:18:09;12.80;92.60
12015;DHT22;6066;48.138;16.402;2023-04-06T14:20:36;12.80;91.20
12015;DHT22;6066;48.138;16.402;2023-04-06T14:23:02;12.70;90.60
12015;DHT22;6066;48.138;16.402;2023-04-06T14:25:31;12.70;91.70
12015;DHT22;6066;48.138;16.402;2023-04-06T14:27:59;12.80;91.00
12015;DHT22;6066;48.138;16.402;2023-04-06T14:30:27;12.90;91.50
12015;DHT22;6066;48.138;16.402;2023-04-06T14:32:56;12.80;91.00
12015;DHT22;6066;48.138;16.402;2023-04-06T14:35:23;12.60;90.20
12015;DHT22;6066;48.138;16.402;2023-04-06T14:37:50;12.30;90.80
12015;DHT22;6066;48.138;16.402;2023-04-06T14:40:17;12.30;91.40
12015;DHT22;6066;48.138;16.402;2023-04-06T14:42:44;12.40;93.10
12015;DHT22;6066;48.138;16.402;2023-04-06T14:45:11;12.40;91.40
12015;DHT22;6066;48.138;16.402;2023-04-06T14:47:40;12.50;90.60
12015;DHT22;6066;48.138;16.402;2023-04-06T14:50:07;12.60;91.60
12015;DHT22;6066;48.138;16.402;2023-04-06T14:52:34;12.60;91.70
12015;DHT22;6066;48.138;16.402;2023-04-06T14:55:01;12.70;92.10
12015;DHT22;6066;48.138;16.402;2023-04-06T14:57:28;12.70;91.60
12015;DHT22;6066;48.138;16.402;2023-04-06T14:59:56;12.70;91.50
12015;DHT22;6066;48.138;16.402;2023-04-06T15:02:23;12.70;90.40
12015;DHT22;6066;48.138;16.402;2023-04-06T15:04:51;12.70;92.50
12015;DHT22;6066;48.138;16.402;2023-04-06T15:07:17;12.70;91.80
12015;DHT22;6066;48.138;16.402;2023-04-06T15:09:44;12.70;91.90
12015;DHT22;6066;48.138;16.402;2023-04-06T15:12:11;12.60;91.40
12015;DHT22;6066;48.138;16.402;2023-04-06T15:14:40;12.60;91.90
12015;DHT22;6066;48.138;16.402;2023-04-06T15:17:06;12.60;92.60
12015;DHT22;6066;48.138;16.402;2023-04-06T15:19:33;12.60;91.80
12015;DHT22;6066;48.138;16.402;2023-04-06T15:22:01;12.60;92.70
12015;DHT22;6066;48.138;16.402;2023-04-06T15:24:28;12.60;92.90
12015;DHT22;6066;48.138;16.402;2023-04-06T15:26:55;12.50;92.10
12015;DHT22;6066;48.138;16.402;2023-04-06T15:29:22;12.60;92.80
12015;DHT22;6066;48.138;16.402;2023-04-06T15:31:48;12.60;92.20
12015;DHT22;6066;48.138;16.402;2023-04-06T15:34:15;12.40;92.50
12015;DHT22;6066;48.138;16.402;2023-04-06T15:36:42;12.30;92.50
12015;DHT22;6066;48.138;16.402;2023-04-06T15:39:12;12.20;92.00
12015;DHT22;6066;48.138;16.402;2023-04-06T15:41:39;12.10;92.60